createdAt,value
2024-05-09T00:00:31.568Z,13.60
2024-05-09T00:01:27.010Z,13.00
2024-05-09T00:02:26.956Z,12.50
2024-05-09T00:03:26.949Z,13.30
2024-05-09T00:04:26.904Z,12.90
2024-05-09T00:05:26.925Z,13.30
2024-05-09T00:06:26.899Z,12.60
2024-05-09T00:07:26.881Z,12.50
2024-05-09T00:08:26.999Z,12.20
2024-05-09T00:09:26.837Z,13.40
2024-05-09T00:10:35.211Z,12.90
2024-05-09T00:11:26.906Z,12.50
2024-05-09T00:12:26.882Z,12.80
2024-05-09T00:13:26.843Z,12.20
2024-05-09T00:14:26.919Z,13.10
2024-05-09T00:15:26.784Z,12.80
2024-05-09T00:16:26.781Z,12.30
2024-05-09T00:17:26.950Z,12.50
2024-05-09T00:18:26.927Z,12.80
2024-05-09T00:19:26.842Z,12.20
2024-05-09T00:20:35.107Z,12.80
2024-05-09T00:21:26.714Z,12.50
2024-05-09T00:22:26.724Z,12.50
2024-05-09T00:23:26.832Z,12.30
2024-05-09T00:24:26.731Z,12.70
2024-05-09T00:25:26.685Z,12.60
2024-05-09T00:26:26.702Z,13.70
2024-05-09T00:27:26.640Z,12.90
2024-05-09T00:28:26.667Z,13.20
2024-05-09T00:29:26.765Z,13.00
2024-05-09T00:30:33.573Z,12.80
2024-05-09T00:31:26.632Z,13.40
2024-05-09T00:32:26.870Z,13.00
2024-05-09T00:33:26.847Z,13.50
2024-05-09T00:34:26.892Z,12.90
2024-05-09T00:35:26.664Z,13.40
2024-05-09T00:36:26.592Z,13.70
2024-05-09T00:37:26.528Z,12.80
2024-05-09T00:38:26.649Z,13.20
2024-05-09T00:39:26.524Z,12.90
2024-05-09T00:40:35.606Z,12.00
2024-05-09T00:41:26.622Z,12.20
2024-05-09T00:42:26.517Z,12.60
2024-05-09T00:43:26.541Z,12.90
2024-05-09T00:44:26.569Z,12.80
2024-05-09T00:45:26.446Z,13.30
2024-05-09T00:46:26.451Z,13.00
2024-05-09T00:47:26.762Z,12.40
2024-05-09T00:48:26.899Z,12.90
2024-05-09T00:49:26.665Z,12.80
2024-05-09T00:50:35.273Z,14.30
2024-05-09T00:51:26.418Z,12.40
2024-05-09T00:52:26.420Z,13.30
2024-05-09T00:53:26.399Z,13.50
2024-05-09T00:54:26.369Z,13.20
2024-05-09T00:55:26.355Z,13.00
2024-05-09T00:56:26.401Z,12.90
2024-05-09T00:57:26.321Z,13.80
2024-05-09T00:58:26.352Z,14.40
2024-05-09T00:59:26.542Z,13.40
2024-05-09T01:00:32.074Z,13.30
2024-05-09T01:01:26.383Z,12.60
2024-05-09T01:02:26.393Z,12.80
2024-05-09T01:03:26.523Z,12.90
2024-05-09T01:04:26.369Z,12.70
2024-05-09T01:05:26.259Z,13.10
2024-05-09T01:06:26.216Z,13.00
2024-05-09T01:07:26.276Z,13.80
2024-05-09T01:08:26.270Z,12.90
2024-05-09T01:09:26.205Z,12.70
2024-05-09T01:10:33.584Z,12.70
2024-05-09T01:11:26.358Z,13.60
2024-05-09T01:12:26.225Z,14.10
2024-05-09T01:13:26.149Z,13.40
2024-05-09T01:14:26.221Z,13.90
2024-05-09T01:15:26.167Z,13.10
2024-05-09T01:16:26.146Z,14.00
2024-05-09T01:17:26.272Z,13.40
2024-05-09T01:18:26.233Z,14.00
2024-05-09T01:19:26.450Z,14.00
2024-05-09T01:20:37.206Z,14.10
2024-05-09T01:21:26.114Z,14.00
2024-05-09T01:22:26.056Z,14.30
2024-05-09T01:23:26.174Z,12.90
2024-05-09T01:24:26.020Z,14.50
2024-05-09T01:25:26.026Z,14.20
2024-05-09T01:26:26.083Z,14.10
2024-05-09T01:27:26.027Z,13.50
2024-05-09T01:28:26.013Z,13.00
2024-05-09T01:29:26.080Z,13.30
2024-05-09T01:30:33.011Z,13.60
2024-05-09T01:31:25.978Z,14.10
2024-05-09T01:32:26.051Z,14.40
2024-05-09T01:33:26.266Z,13.70
2024-05-09T01:34:25.937Z,14.20
2024-05-09T01:35:25.952Z,13.90
2024-05-09T01:36:25.920Z,13.20
2024-05-09T01:37:25.890Z,13.10
2024-05-09T01:38:26.025Z,13.80
2024-05-09T01:39:25.893Z,13.90
2024-05-09T01:40:36.128Z,13.70
2024-05-09T01:41:25.956Z,13.10
2024-05-09T01:42:25.858Z,14.30
2024-05-09T01:43:25.825Z,13.40
2024-05-09T01:44:25.942Z,14.00
2024-05-09T01:45:25.812Z,14.50
2024-05-09T01:46:25.853Z,13.00
2024-05-09T01:47:26.080Z,12.90
2024-05-09T01:48:25.916Z,13.90
2024-05-09T01:49:25.944Z,13.30
2024-05-09T01:50:37.054Z,14.70
2024-05-09T01:51:25.765Z,14.70
2024-05-09T01:52:25.779Z,13.70
2024-05-09T01:53:25.768Z,13.40
2024-05-09T01:54:25.707Z,13.80
2024-05-09T01:55:25.695Z,13.90
2024-05-09T01:56:25.760Z,13.60
2024-05-09T01:57:25.781Z,12.90
2024-05-09T01:58:25.721Z,14.30
2024-05-09T01:59:25.775Z,14.60
2024-05-09T02:00:34.192Z,13.20
2024-05-09T02:01:25.741Z,13.60
2024-05-09T02:02:25.742Z,14.70
2024-05-09T02:03:25.712Z,13.40
2024-05-09T02:04:25.881Z,13.90
2024-05-09T02:05:25.692Z,15.00
2024-05-09T02:06:25.589Z,13.70
2024-05-09T02:07:25.596Z,14.10
2024-05-09T02:08:25.640Z,13.30
2024-05-09T02:09:25.567Z,14.30
2024-05-09T02:10:32.064Z,13.30
2024-05-09T02:11:25.640Z,13.90
2024-05-09T02:12:25.677Z,13.60
2024-05-09T02:13:25.544Z,13.80
2024-05-09T02:14:25.598Z,13.40
2024-05-09T02:15:25.554Z,14.30
2024-05-09T02:16:25.480Z,14.50
2024-05-09T02:17:25.665Z,13.90
2024-05-09T02:18:25.713Z,13.70
2024-05-09T02:19:25.569Z,14.00
2024-05-09T02:20:33.839Z,13.30
2024-05-09T02:21:25.465Z,14.60
2024-05-09T02:22:25.432Z,14.70
2024-05-09T02:23:25.435Z,13.80
2024-05-09T02:24:25.447Z,13.60
2024-05-09T02:25:25.396Z,13.00
2024-05-09T02:26:25.425Z,13.40
2024-05-09T02:27:25.406Z,14.20
2024-05-09T02:28:25.393Z,14.10
2024-05-09T02:29:25.451Z,14.80
2024-05-09T02:30:35.344Z,14.10
2024-05-09T02:31:25.325Z,15.10
2024-05-09T02:32:25.496Z,15.20
2024-05-09T02:33:25.556Z,14.00
2024-05-09T02:34:25.413Z,13.80
2024-05-09T02:35:25.475Z,13.60
2024-05-09T02:36:25.263Z,13.40
2024-05-09T02:37:25.296Z,14.20
2024-05-09T02:38:25.388Z,14.40
2024-05-09T02:39:25.227Z,14.90
2024-05-09T02:40:33.535Z,14.50
2024-05-09T02:41:25.339Z,14.00
2024-05-09T02:42:25.212Z,14.00
2024-05-09T02:43:25.208Z,13.70
2024-05-09T02:44:25.318Z,13.80
2024-05-09T02:45:25.175Z,13.70
2024-05-09T02:46:25.241Z,13.60
2024-05-09T02:47:25.323Z,13.30
2024-05-09T02:48:25.270Z,13.50
2024-05-09T02:49:25.281Z,13.30
2024-05-09T02:50:33.591Z,14.40
2024-05-09T02:51:25.102Z,13.30
2024-05-09T02:52:25.109Z,13.80
2024-05-09T02:53:25.159Z,13.30
2024-05-09T02:54:25.076Z,14.10
2024-05-09T02:55:25.072Z,13.70
2024-05-09T02:56:25.218Z,13.80
2024-05-09T02:57:25.084Z,13.50
2024-05-09T02:58:25.086Z,13.80
2024-05-09T02:59:25.229Z,13.80
2024-05-09T03:00:34.282Z,13.70
2024-05-09T03:01:25.072Z,13.60
2024-05-09T03:02:25.077Z,13.10
2024-05-09T03:03:25.147Z,13.90
2024-05-09T03:04:25.095Z,13.90
2024-05-09T03:05:24.999Z,13.70
2024-05-09T03:06:24.950Z,14.10
2024-05-09T03:07:24.953Z,13.40
2024-05-09T03:08:25.005Z,13.70
2024-05-09T03:09:24.907Z,13.90
2024-05-09T03:10:28.642Z,13.60
2024-05-09T03:11:25.046Z,13.00
2024-05-09T03:12:24.952Z,13.30
2024-05-09T03:13:24.936Z,13.20
2024-05-09T03:14:25.078Z,13.50
2024-05-09T03:15:24.855Z,13.60
2024-05-09T03:16:24.834Z,14.70
2024-05-09T03:17:25.062Z,15.60
2024-05-09T03:18:24.963Z,15.40
2024-05-09T03:19:24.935Z,14.50
2024-05-09T03:20:32.398Z,14.10
2024-05-09T03:21:24.854Z,14.50
2024-05-09T03:22:24.785Z,14.10
2024-05-09T03:23:24.878Z,14.50
2024-05-09T03:24:24.801Z,13.20
2024-05-09T03:25:24.783Z,13.50
2024-05-09T03:26:24.865Z,13.90
2024-05-09T03:27:24.763Z,14.10
2024-05-09T03:28:24.802Z,13.30
2024-05-09T03:29:24.826Z,13.70
2024-05-09T03:30:31.205Z,13.90
2024-05-09T03:31:24.700Z,15.10
2024-05-09T03:32:24.764Z,14.20
2024-05-09T03:33:24.938Z,16.00
2024-05-09T03:34:24.731Z,14.10
2024-05-09T03:35:24.798Z,13.70
2024-05-09T03:36:24.678Z,15.00
2024-05-09T03:37:24.665Z,14.40
2024-05-09T03:38:24.574Z,14.60
2024-05-09T03:39:24.657Z,14.40
2024-05-09T03:40:28.934Z,14.80
2024-05-09T03:41:24.583Z,14.50
2024-05-09T03:42:24.502Z,14.30
2024-05-09T03:43:24.592Z,14.10
2024-05-09T03:44:24.501Z,14.00
2024-05-09T03:45:24.508Z,14.10
2024-05-09T03:46:24.534Z,13.70
2024-05-09T03:47:24.664Z,13.70
2024-05-09T03:48:24.715Z,13.10
2024-05-09T03:49:24.837Z,14.20
2024-05-09T03:50:30.187Z,14.60
2024-05-09T03:51:24.536Z,13.10
2024-05-09T03:52:24.447Z,14.30
2024-05-09T03:53:24.454Z,14.10
2024-05-09T03:54:24.467Z,13.30
2024-05-09T03:55:24.407Z,13.10
2024-05-09T03:56:24.453Z,13.70
2024-05-09T03:57:24.393Z,13.70
2024-05-09T03:58:24.344Z,13.50
2024-05-09T03:59:24.446Z,13.20
2024-05-09T04:00:31.392Z,13.30
2024-05-09T04:01:24.350Z,13.60
2024-05-09T04:02:24.486Z,13.40
2024-05-09T04:03:24.731Z,13.70
2024-05-09T04:04:24.432Z,12.90
2024-05-09T04:05:24.349Z,12.60
2024-05-09T04:06:24.272Z,13.40
2024-05-09T04:07:24.259Z,13.20
2024-05-09T04:08:24.338Z,13.00
2024-05-09T04:09:24.276Z,13.70
2024-05-09T04:10:31.193Z,13.10
2024-05-09T04:11:24.348Z,13.80
2024-05-09T04:12:24.374Z,13.50
2024-05-09T04:13:24.197Z,13.10
2024-05-09T04:14:24.239Z,14.30
2024-05-09T04:15:24.199Z,12.90
2024-05-09T04:16:24.205Z,13.10
2024-05-09T04:17:24.282Z,13.80
2024-05-09T04:18:24.282Z,14.40
2024-05-09T04:19:24.453Z,14.50
2024-05-09T04:20:33.585Z,13.80
2024-05-09T04:21:24.160Z,14.50
2024-05-09T04:22:24.102Z,13.20
2024-05-09T04:23:24.148Z,14.60
2024-05-09T04:24:24.081Z,14.20
2024-05-09T04:25:24.112Z,14.50
2024-05-09T04:26:24.101Z,14.40
2024-05-09T04:27:24.077Z,14.20
2024-05-09T04:28:24.150Z,14.60
2024-05-09T04:29:24.201Z,14.60
2024-05-09T04:30:34.326Z,14.20
2024-05-09T04:31:24.062Z,14.00
2024-05-09T04:32:24.209Z,13.60
2024-05-09T04:33:24.299Z,15.00
2024-05-09T04:34:24.077Z,14.10
2024-05-09T04:35:24.112Z,14.90
2024-05-09T04:36:23.984Z,14.70
2024-05-09T04:37:23.962Z,14.50
2024-05-09T04:38:23.984Z,14.50
2024-05-09T04:39:23.943Z,14.00
2024-05-09T04:40:31.369Z,15.10
2024-05-09T04:41:23.986Z,15.00
2024-05-09T04:42:23.881Z,15.60
2024-05-09T04:43:23.907Z,15.30
2024-05-09T04:44:23.955Z,16.10
2024-05-09T04:45:23.909Z,15.80
2024-05-09T04:46:23.923Z,14.30
2024-05-09T04:47:23.931Z,15.40
2024-05-09T04:48:23.994Z,15.60
2024-05-09T04:49:24.139Z,16.10
2024-05-09T04:50:33.198Z,15.80
2024-05-09T04:51:23.847Z,15.50
2024-05-09T04:52:23.785Z,15.90
2024-05-09T04:53:23.853Z,16.60
2024-05-09T04:54:33.654Z,15.60
2024-05-09T04:55:23.770Z,15.70
2024-05-09T04:56:23.802Z,16.00
2024-05-09T04:57:23.727Z,15.60
2024-05-09T04:58:23.738Z,17.10
2024-05-09T04:59:23.830Z,15.60
2024-05-09T05:00:32.437Z,15.70
2024-05-09T05:01:23.728Z,16.70
2024-05-09T05:02:23.757Z,16.20
2024-05-09T05:03:23.932Z,16.80
2024-05-09T05:04:23.672Z,16.90
2024-05-09T05:05:23.762Z,17.40
2024-05-09T05:06:23.656Z,16.40
2024-05-09T05:07:23.663Z,17.10
2024-05-09T05:08:23.710Z,16.60
2024-05-09T05:09:23.644Z,16.60
2024-05-09T05:10:32.928Z,17.90
2024-05-09T05:11:23.769Z,15.90
2024-05-09T05:12:23.768Z,15.80
2024-05-09T05:13:24.363Z,17.20
2024-05-09T05:14:23.663Z,16.80
2024-05-09T05:15:23.527Z,16.80
2024-05-09T05:16:23.579Z,16.90
2024-05-09T05:17:23.611Z,17.30
2024-05-09T05:18:23.593Z,17.40
2024-05-09T05:19:23.550Z,16.70
2024-05-09T05:20:30.937Z,17.90
2024-05-09T05:21:23.551Z,17.50
2024-05-09T05:22:23.477Z,17.40
2024-05-09T05:23:23.964Z,18.10
2024-05-09T05:24:23.469Z,19.20
2024-05-09T05:25:23.447Z,17.90
2024-05-09T05:26:23.502Z,17.80
2024-05-09T05:27:23.406Z,17.80
2024-05-09T05:28:23.613Z,18.30
2024-05-09T05:29:23.561Z,19.40
2024-05-09T05:30:29.010Z,18.80
2024-05-09T05:31:23.509Z,19.70
2024-05-09T05:32:23.574Z,19.20
2024-05-09T05:33:23.742Z,19.00
2024-05-09T05:34:23.349Z,20.20
2024-05-09T05:35:23.461Z,20.10
2024-05-09T05:36:23.319Z,19.70
2024-05-09T05:37:23.378Z,20.20
2024-05-09T05:38:27.260Z,19.50
2024-05-09T05:39:23.305Z,19.60
2024-05-09T05:40:32.196Z,20.00
2024-05-09T05:41:23.371Z,19.80
2024-05-09T05:42:23.247Z,19.60
2024-05-09T05:43:23.318Z,19.70
2024-05-09T05:44:23.258Z,21.60
2024-05-09T05:45:23.224Z,19.80
2024-05-09T05:46:23.235Z,21.00
2024-05-09T05:47:23.285Z,21.40
2024-05-09T05:48:23.489Z,21.30
2024-05-09T05:49:23.395Z,20.00
2024-05-09T05:50:28.068Z,20.60
2024-05-09T05:51:23.294Z,21.70
2024-05-09T05:52:23.185Z,21.60
2024-05-09T05:53:23.240Z,21.30
2024-05-09T05:54:23.137Z,22.10
2024-05-09T05:55:23.149Z,21.10
2024-05-09T05:56:23.138Z,21.70
2024-05-09T05:57:23.168Z,20.90
2024-05-09T05:58:23.104Z,21.10
2024-05-09T05:59:23.176Z,22.40
2024-05-09T06:00:29.851Z,21.30
2024-05-09T06:01:23.124Z,21.20
2024-05-09T06:02:23.151Z,22.00
2024-05-09T06:04:23.176Z,21.80
2024-05-09T06:05:29.283Z,23.00
2024-05-09T06:06:23.082Z,22.10
2024-05-09T06:07:23.031Z,22.60
2024-05-09T06:08:23.760Z,22.40
2024-05-09T06:09:23.060Z,22.60
2024-05-09T06:10:29.627Z,22.10
2024-05-09T06:11:23.117Z,22.70
2024-05-09T06:12:23.096Z,22.90
2024-05-09T06:13:22.973Z,24.00
2024-05-09T06:14:23.090Z,22.80
2024-05-09T06:15:22.934Z,25.20
2024-05-09T06:16:22.931Z,23.60
2024-05-09T06:17:23.105Z,24.10
2024-05-09T06:18:23.217Z,24.70
2024-05-09T06:19:22.981Z,24.10
2024-05-09T06:20:31.765Z,23.50
2024-05-09T06:21:22.900Z,24.10
2024-05-09T06:22:22.860Z,25.40
2024-05-09T06:23:22.920Z,24.70
2024-05-09T06:24:22.839Z,23.90
2024-05-09T06:25:22.798Z,23.80
2024-05-09T06:26:22.896Z,25.80
2024-05-09T06:27:22.790Z,24.60
2024-05-09T06:28:22.772Z,24.80
2024-05-09T06:29:22.865Z,24.40
2024-05-09T06:30:30.108Z,24.60
2024-05-09T06:31:22.744Z,23.60
2024-05-09T06:32:23.128Z,23.20
2024-05-09T06:33:22.916Z,25.20
2024-05-09T06:34:23.037Z,27.10
2024-05-09T06:35:22.781Z,25.40
2024-05-09T06:36:22.704Z,25.70
2024-05-09T06:37:22.700Z,24.90
2024-05-09T06:38:22.724Z,24.70
2024-05-09T06:39:22.668Z,24.80
2024-05-09T06:40:25.933Z,25.70
2024-05-09T06:41:22.729Z,25.60
2024-05-09T06:42:22.642Z,24.90
2024-05-09T06:43:22.640Z,24.70
2024-05-09T06:44:22.730Z,25.10
2024-05-09T06:45:22.618Z,23.50
2024-05-09T06:46:22.579Z,26.20
2024-05-09T06:47:22.727Z,24.30
2024-05-09T06:48:23.065Z,25.70
2024-05-09T06:49:22.707Z,26.10
2024-05-09T06:50:24.503Z,25.30
2024-05-09T06:51:22.553Z,24.60
2024-05-09T06:52:22.530Z,26.40
2024-05-09T06:53:22.641Z,24.80
2024-05-09T06:54:22.513Z,26.20
2024-05-09T06:55:22.526Z,24.50
2024-05-09T06:56:22.552Z,24.10
2024-05-09T06:57:22.456Z,26.10
2024-05-09T06:58:22.480Z,24.20
2024-05-09T06:59:22.726Z,24.80
2024-05-09T07:00:30.853Z,25.40
2024-05-09T07:01:22.622Z,24.40
2024-05-09T07:02:22.602Z,25.20
2024-05-09T07:03:22.557Z,24.10
2024-05-09T07:04:22.510Z,24.90
2024-05-09T07:05:22.554Z,25.30
2024-05-09T07:06:22.394Z,24.70
2024-05-09T07:07:22.409Z,24.30
2024-05-09T07:08:22.489Z,25.20
2024-05-09T07:09:22.391Z,25.00
2024-05-09T07:10:28.881Z,24.50
2024-05-09T07:11:22.505Z,25.40
2024-05-09T07:12:22.418Z,25.20
2024-05-09T07:13:22.336Z,26.00
2024-05-09T07:14:22.435Z,25.10
2024-05-09T07:15:22.303Z,26.20
2024-05-09T07:16:22.260Z,25.90
2024-05-09T07:17:22.357Z,24.60
2024-05-09T07:18:22.515Z,24.80
2024-05-09T07:19:22.318Z,25.60
2024-05-09T07:20:31.697Z,25.90
2024-05-09T07:21:22.265Z,23.70
2024-05-09T07:22:22.203Z,24.40
2024-05-09T07:23:22.295Z,24.30
2024-05-09T07:24:22.251Z,26.50
2024-05-09T07:25:22.164Z,25.20
2024-05-09T07:26:22.206Z,25.30
2024-05-09T07:27:22.138Z,26.90
2024-05-09T07:28:22.139Z,25.90
2024-05-09T07:29:22.172Z,25.30
2024-05-09T07:30:27.609Z,26.50
2024-05-09T07:31:22.108Z,26.20
2024-05-09T07:32:22.250Z,27.80
2024-05-09T07:33:23.694Z,28.20
2024-05-09T07:34:22.328Z,29.20
2024-05-09T07:35:22.102Z,27.60
2024-05-09T07:36:22.060Z,27.90
2024-05-09T07:37:22.036Z,27.50
2024-05-09T07:38:22.128Z,28.90
2024-05-09T07:39:22.046Z,27.50
2024-05-09T07:40:31.615Z,27.80
2024-05-09T07:41:22.105Z,28.20
2024-05-09T07:42:21.988Z,27.80
2024-05-09T07:43:21.982Z,26.80
2024-05-09T07:44:22.014Z,28.70
2024-05-09T07:45:40.624Z,27.20
2024-05-09T07:48:56.523Z,27.10
2024-05-09T07:52:22.646Z,27.30
2024-05-09T07:53:42.111Z,27.70
2024-05-09T07:53:53.419Z,27.10
2024-05-09T07:54:45.195Z,28.20
2024-05-09T07:55:45.090Z,27.00
2024-05-09T07:56:45.031Z,26.70
2024-05-09T07:57:44.956Z,28.00
2024-05-09T07:58:44.903Z,28.50
2024-05-09T07:59:44.888Z,26.70
2024-05-09T08:00:45.102Z,28.30
2024-05-09T08:01:45.074Z,27.90
2024-05-09T08:02:44.917Z,27.60
2024-05-09T08:03:45.060Z,27.30
2024-05-09T08:04:44.911Z,26.60
2024-05-09T08:05:44.871Z,28.50
2024-05-09T08:06:44.866Z,27.00
2024-05-09T08:07:44.791Z,28.30
2024-05-09T08:08:44.816Z,25.80
2024-05-09T08:09:44.834Z,27.20
2024-05-09T08:10:44.886Z,26.50
2024-05-09T08:11:44.863Z,27.90
2024-05-09T08:12:44.769Z,28.10
2024-05-09T08:13:44.756Z,28.30
2024-05-09T08:14:44.709Z,28.30
2024-05-09T08:15:44.863Z,27.20
2024-05-09T08:16:44.695Z,28.10
2024-05-09T08:17:44.878Z,27.20
2024-05-09T08:18:44.809Z,30.00
2024-05-09T08:19:44.731Z,29.90
2024-05-09T08:20:44.678Z,28.80
2024-05-09T08:21:44.712Z,28.70
2024-05-09T08:22:44.670Z,28.80
2024-05-09T08:23:44.636Z,29.20
2024-05-09T08:24:44.717Z,28.00
2024-05-09T08:25:44.635Z,27.60
2024-05-09T08:26:44.583Z,27.40
2024-05-09T08:27:44.617Z,28.40
2024-05-09T08:28:44.571Z,27.40
2024-05-09T08:29:44.674Z,27.00
2024-05-09T08:30:44.836Z,27.60
2024-05-09T08:31:44.719Z,27.60
2024-05-09T08:32:44.689Z,27.80
2024-05-09T08:33:44.755Z,29.40
2024-05-09T08:34:44.682Z,28.60
2024-05-09T08:35:44.488Z,29.70
2024-05-09T08:36:44.607Z,29.10
2024-05-09T08:37:44.536Z,28.30
2024-05-09T08:38:44.467Z,29.00
2024-05-09T08:39:44.502Z,27.80
2024-05-09T08:40:44.692Z,29.10
2024-05-09T08:41:44.409Z,28.70
2024-05-09T08:42:44.476Z,26.30
2024-05-09T08:43:44.423Z,28.10
2024-05-09T08:44:44.387Z,28.60
2024-05-09T08:45:45.441Z,28.20
2024-05-09T08:46:44.410Z,29.40
2024-05-09T08:47:44.440Z,28.10
2024-05-09T08:48:44.603Z,28.50
2024-05-09T08:49:44.378Z,26.90
2024-05-09T08:50:45.506Z,28.50
2024-05-09T08:51:44.379Z,26.80
2024-05-09T08:52:44.329Z,28.00
2024-05-09T08:53:44.332Z,28.80
2024-05-09T08:54:44.387Z,27.30
2024-05-09T08:55:44.749Z,28.40
2024-05-09T08:56:44.275Z,29.20
2024-05-09T08:57:44.276Z,27.90
2024-05-09T08:58:44.266Z,27.20
2024-05-09T08:59:44.266Z,28.60
2024-05-09T09:00:45.004Z,27.20
2024-05-09T09:01:44.425Z,27.30
2024-05-09T09:02:44.601Z,27.70
2024-05-09T09:03:44.382Z,26.70
2024-05-09T09:04:44.338Z,26.30
2024-05-09T09:05:44.268Z,25.80
2024-05-09T09:06:44.448Z,26.70
2024-05-09T09:07:44.162Z,27.90
2024-05-09T09:08:44.179Z,29.70
2024-05-09T09:09:44.349Z,29.40
2024-05-09T09:10:44.240Z,26.40
2024-05-09T09:11:44.168Z,26.90
2024-05-09T09:12:44.239Z,26.30
2024-05-09T09:13:44.079Z,25.50
2024-05-09T09:14:44.079Z,25.10
2024-05-09T09:15:44.169Z,24.00
2024-05-09T09:16:44.065Z,24.20
2024-05-09T09:17:44.174Z,24.30
2024-05-09T09:18:44.321Z,24.50
2024-05-09T09:19:44.097Z,24.50
2024-05-09T09:20:44.159Z,24.40
2024-05-09T09:21:44.117Z,24.60
2024-05-09T09:22:43.985Z,24.30
2024-05-09T09:23:43.971Z,23.30
2024-05-09T09:24:44.037Z,24.10
2024-05-09T09:25:43.957Z,23.60
2024-05-09T09:26:43.963Z,24.70
2024-05-09T09:27:43.988Z,24.20
2024-05-09T09:28:43.914Z,22.90
2024-05-09T09:29:43.918Z,25.40
2024-05-09T09:30:44.046Z,24.90
2024-05-09T09:31:43.910Z,25.50
2024-05-09T09:32:43.996Z,23.70
2024-05-09T09:33:44.182Z,23.50
2024-05-09T09:34:43.967Z,23.70
2024-05-09T09:35:43.861Z,23.00
2024-05-09T09:36:43.940Z,23.60
2024-05-09T09:37:43.841Z,24.20
2024-05-09T09:38:43.885Z,23.60
2024-05-09T09:39:43.863Z,23.00
2024-05-09T09:40:48.281Z,24.00
2024-05-09T09:41:43.862Z,23.50
2024-05-09T09:42:43.838Z,22.90
2024-05-09T09:43:43.828Z,23.40
2024-05-09T09:44:47.752Z,23.50
2024-05-09T09:45:43.987Z,22.60
2024-05-09T09:46:43.733Z,22.30
2024-05-09T09:47:43.853Z,23.50
2024-05-09T09:48:43.872Z,23.40
2024-05-09T09:49:43.809Z,21.60
2024-05-09T09:50:43.713Z,26.70
2024-05-09T09:51:43.878Z,23.40
2024-05-09T09:52:43.679Z,24.70
2024-05-09T09:53:43.757Z,23.10
2024-05-09T09:54:43.667Z,21.30
2024-05-09T09:55:43.643Z,22.00
2024-05-09T09:56:43.658Z,20.70
2024-05-09T09:57:43.772Z,20.30
2024-05-09T09:58:43.625Z,19.00
2024-05-09T09:59:43.625Z,20.50
2024-05-09T10:00:43.855Z,20.60
2024-05-09T10:01:43.722Z,20.00
2024-05-09T10:02:43.628Z,19.80
2024-05-09T10:03:43.728Z,21.10
2024-05-09T10:04:43.722Z,18.90
2024-05-09T10:05:46.325Z,18.90
2024-05-09T10:06:43.575Z,18.30
2024-05-09T10:07:43.519Z,18.60
2024-05-09T10:08:43.529Z,18.90
2024-05-09T10:09:43.540Z,19.90
2024-05-09T10:10:43.881Z,19.30
2024-05-09T10:11:49.101Z,18.70
2024-05-09T10:12:43.490Z,18.90
2024-05-09T10:13:43.470Z,20.20
2024-05-09T10:14:43.484Z,19.80
2024-05-09T10:15:43.499Z,20.30
2024-05-09T10:16:43.422Z,20.20
2024-05-09T10:17:43.533Z,19.30
2024-05-09T10:18:43.782Z,18.20
2024-05-09T10:19:43.535Z,18.90
2024-05-09T10:20:43.429Z,19.70
2024-05-09T10:21:43.428Z,21.40
2024-05-09T10:22:43.380Z,20.10
2024-05-09T10:23:43.365Z,20.10
2024-05-09T10:24:43.398Z,19.80
2024-05-09T10:25:43.395Z,19.80
2024-05-09T10:26:43.336Z,20.50
2024-05-09T10:27:43.330Z,21.50
2024-05-09T10:28:43.334Z,21.40
2024-05-09T10:29:43.265Z,20.80
2024-05-09T10:30:43.454Z,20.70
2024-05-09T10:31:43.558Z,21.00
2024-05-09T10:32:43.384Z,20.90
2024-05-09T10:33:43.394Z,21.20
2024-05-09T10:34:43.377Z,21.30
2024-05-09T10:35:43.239Z,20.40
2024-05-09T10:36:43.360Z,20.90
2024-05-09T10:37:43.211Z,18.90
2024-05-09T10:38:43.296Z,19.60
2024-05-09T10:39:43.256Z,19.60
2024-05-09T10:40:43.254Z,18.00
2024-05-09T10:41:43.168Z,17.80
2024-05-09T10:42:43.227Z,18.90
2024-05-09T10:43:43.145Z,18.80
2024-05-09T10:44:43.174Z,18.70
2024-05-09T10:45:43.160Z,18.70
2024-05-09T10:46:43.104Z,18.30
2024-05-09T10:47:43.282Z,18.60
2024-05-09T10:48:43.334Z,18.30
2024-05-09T10:49:43.100Z,17.60
2024-05-09T10:50:43.109Z,17.90
2024-05-09T10:51:43.101Z,17.70
2024-05-09T10:52:43.092Z,17.30
2024-05-09T10:53:43.149Z,16.90
2024-05-09T10:54:43.084Z,16.50
2024-05-09T10:55:43.030Z,16.50
2024-05-09T10:56:43.040Z,15.80
2024-05-09T10:57:43.056Z,16.00
2024-05-09T10:58:43.127Z,15.40
2024-05-09T10:59:43.061Z,15.00
2024-05-09T11:00:43.144Z,16.20
2024-05-09T11:01:43.094Z,16.40
2024-05-09T11:02:43.254Z,16.40
2024-05-09T11:03:43.226Z,16.10
2024-05-09T11:04:43.077Z,15.80
2024-05-09T11:05:43.260Z,14.40
2024-05-09T11:06:42.967Z,15.80
2024-05-09T11:07:42.880Z,16.20
2024-05-09T11:08:42.895Z,15.60
2024-05-09T11:09:42.931Z,14.40
2024-05-09T11:10:43.041Z,15.20
2024-05-09T11:11:42.867Z,14.60
2024-05-09T11:12:42.873Z,15.50
2024-05-09T11:13:42.801Z,17.00
2024-05-09T11:14:42.778Z,15.80
2024-05-09T11:15:42.864Z,15.10
2024-05-09T11:16:42.829Z,16.40
2024-05-09T11:17:42.858Z,17.10
2024-05-09T11:18:42.878Z,19.60
2024-05-09T11:19:42.835Z,18.10
2024-05-09T11:20:42.859Z,18.20
2024-05-09T11:21:42.940Z,20.50
2024-05-09T11:22:42.742Z,18.60
2024-05-09T11:23:42.826Z,17.10
2024-05-09T11:24:42.719Z,16.90
2024-05-09T11:25:43.063Z,16.60
2024-05-09T11:26:42.704Z,15.80
2024-05-09T11:27:42.856Z,15.40
2024-05-09T11:28:44.846Z,15.20
2024-05-09T11:29:42.641Z,14.90
2024-05-09T11:30:42.707Z,14.20
2024-05-09T11:31:42.753Z,15.40
2024-05-09T11:32:42.771Z,14.70
2024-05-09T11:33:42.760Z,15.30
2024-05-09T11:34:42.797Z,16.10
2024-05-09T11:35:42.597Z,15.70
2024-05-09T11:36:42.706Z,15.30
2024-05-09T11:37:42.567Z,15.00
2024-05-09T11:38:42.681Z,14.40
2024-05-09T11:39:42.603Z,14.70
2024-05-09T11:40:42.638Z,14.80
2024-05-09T11:41:42.616Z,16.10
2024-05-09T11:42:42.587Z,15.10
2024-05-09T11:43:42.561Z,14.70
2024-05-09T11:44:42.552Z,14.50
2024-05-09T11:45:42.583Z,15.60
2024-05-09T11:46:42.457Z,15.60
2024-05-09T11:47:42.630Z,15.10
2024-05-09T11:48:42.611Z,15.40
2024-05-09T11:49:42.593Z,14.40
2024-05-09T11:50:42.471Z,14.70
2024-05-09T11:51:42.534Z,14.70
2024-05-09T11:52:42.453Z,15.60
2024-05-09T11:53:42.437Z,14.00
2024-05-09T11:54:42.728Z,14.70
2024-05-09T11:55:42.415Z,14.90
2024-05-09T11:56:42.359Z,14.70
2024-05-09T11:57:42.421Z,15.10
2024-05-09T11:58:42.334Z,14.60
2024-05-09T11:59:42.355Z,15.00
2024-05-09T12:00:42.456Z,13.80
2024-05-09T12:01:42.473Z,12.40
2024-05-09T12:02:42.332Z,14.00
2024-05-09T12:03:42.590Z,13.80
2024-05-09T12:04:42.617Z,13.40
2024-05-09T12:05:43.510Z,13.80
2024-05-09T12:06:43.945Z,13.50
2024-05-09T12:07:45.687Z,12.90
2024-05-09T12:08:42.238Z,14.10
2024-05-09T12:09:42.253Z,14.30
2024-05-09T12:10:42.466Z,16.90
2024-05-09T12:11:42.252Z,15.10
2024-05-09T12:12:42.348Z,16.00
2024-05-09T12:14:46.113Z,15.20
2024-05-09T12:15:46.975Z,15.30
2024-05-09T12:16:47.015Z,15.40
2024-05-09T12:17:49.591Z,17.60
2024-05-09T12:18:47.074Z,16.10
2024-05-09T12:19:46.944Z,17.00
2024-05-09T12:20:46.968Z,17.00
2024-05-09T12:21:46.934Z,16.60
2024-05-09T12:22:46.859Z,16.20
2024-05-09T12:23:46.878Z,16.30
2024-05-09T12:24:46.821Z,17.80
2024-05-09T12:25:46.828Z,18.00
2024-05-09T12:26:46.813Z,16.30
2024-05-09T12:27:47.044Z,17.00
2024-05-09T12:28:47.054Z,16.00
2024-05-09T12:29:46.952Z,15.80
2024-05-09T12:30:46.932Z,15.60
2024-05-09T12:35:18.713Z,15.00
2024-05-09T12:36:20.405Z,15.80
2024-05-09T12:39:08.388Z,16.30
2024-05-09T12:41:49.014Z,17.40
2024-05-09T12:42:50.004Z,16.60
2024-05-09T12:43:49.897Z,16.70
2024-05-09T12:44:49.862Z,16.50
2024-05-09T12:45:49.966Z,17.10
2024-05-09T12:46:49.854Z,17.00
2024-05-09T12:47:50.089Z,16.80
2024-05-09T12:48:50.023Z,17.50
2024-05-09T12:49:50.188Z,16.90
2024-05-09T12:50:58.127Z,17.60
2024-05-09T12:51:50.000Z,17.00
2024-05-09T12:52:50.308Z,16.30
2024-05-09T12:53:49.755Z,15.10
2024-05-09T12:54:49.872Z,15.20
2024-05-09T12:55:56.686Z,15.20
2024-05-09T12:56:50.004Z,13.80
2024-05-09T12:57:49.855Z,12.80
2024-05-09T12:58:52.841Z,14.10
2024-05-09T12:59:49.719Z,14.40
2024-05-09T13:00:50.916Z,13.60
2024-05-09T13:01:49.810Z,14.10
2024-05-09T13:02:54.878Z,13.70
2024-05-09T13:03:52.518Z,13.20
2024-05-09T13:04:50.536Z,12.60
2024-05-09T13:05:49.857Z,12.70